sensor_id;sensor_type;location;lat;lon;timestamp;pressure;altitude;pressure_sealevel;temperature;humidity
35121;BME280;21297;52.008;4.576;2023-08-06T00:00:24;51967.47;;;-143.47;100.00
35121;BME280;21297;52.008;4.576;2023-08-06T00:03:10;51949.75;;;-143.47;100.00
35121;BME280;21297;52.008;4.576;2023-08-06T00:05:55;51656.56;;;-143.47;100.00
35121;BME280;21297;52.008;4.576;2023-08-06T00:08:41;51634.91;;;-143.47;100.00
35121;BME280;21297;52.008;4.576;2023-08-06T00:11:27;51682.13;;;-143.47;100.00
35121;BME280;21297;52.008;4.576;2023-08-06T00:14:13;51699.84;;;-143.47;100.00
35121;BME280;21297;52.008;4.576;2023-08-06T00:17:00;52087.53;;;-143.47;100.00
35121;BME280;21297;52.008;4.576;2023-08-06T00:19:46;51908.44;;;-143.47;100.00
35121;BME280;21297;52.008;4.576;2023-08-06T00:22:36;51743.13;;;-143.47;100.00
35121;BME280;21297;52.008;4.576;2023-08-06T00:25:22;51751.00;;;-143.47;100.00
35121;BME280;21297;52.008;4.576;2023-08-06T00:28:08;51723.47;;;-143.47;100.00
35121;BME280;21297;52.008;4.576;2023-08-06T00:30:54;51766.75;;;-143.47;100.00
35121;BME280;21297;52.008;4.576;2023-08-06T00:33:40;51721.50;;;-143.47;100.00
35121;BME280;21297;52.008;4.576;2023-08-06T00:36:26;51725.44;;;-143.47;100.00
35121;BME280;21297;52.008;4.576;2023-08-06T00:39:12;51751.00;;;-143.47;100.00
35121;BME280;21297;52.008;4.576;2023-08-06T00:41:57;51749.03;;;-143.47;100.00
35121;BME280;21297;52.008;4.576;2023-08-06T00:44:43;51798.22;;;-143.47;100.00
35121;BME280;21297;52.008;4.576;2023-08-06T00:47:29;51825.78;;;-143.47;100.00
35121;BME280;21297;52.008;4.576;2023-08-06T00:50:15;51825.78;;;-143.47;100.00
35121;BME280;21297;52.008;4.576;2023-08-06T00:53:01;51867.13;;;-143.47;100.00
35121;BME280;21297;52.008;4.576;2023-08-06T00:55:47;51930.09;;;-143.47;100.00
35121;BME280;21297;52.008;4.576;2023-08-06T00:58:35;51888.75;;;-143.47;100.00
35121;BME280;21297;52.008;4.576;2023-08-06T01:01:21;51888.75;;;-143.47;100.00
35121;BME280;21297;52.008;4.576;2023-08-06T01:04:06;51861.22;;;-143.47;100.00
35121;BME280;21297;52.008;4.576;2023-08-06T01:07:03;51859.25;;;-143.47;100.00
35121;BME280;21297;52.008;4.576;2023-08-06T01:13:03;51853.34;;;-143.47;100.00
35121;BME280;21297;52.008;4.576;2023-08-06T01:15:55;51853.34;;;-143.47;100.00
35121;BME280;21297;52.008;4.576;2023-08-06T01:18:43;51831.69;;;-143.47;100.00
35121;BME280;21297;52.008;4.576;2023-08-06T01:21:31;51825.78;;;-143.47;100.00
35121;BME280;21297;52.008;4.576;2023-08-06T01:24:17;51794.31;;;-143.47;100.00
35121;BME280;21297;52.008;4.576;2023-08-06T01:27:16;51833.66;;;-143.47;100.00
35121;BME280;21297;52.008;4.576;2023-08-06T01:30:07;51843.50;;;-143.47;100.00
35121;BME280;21297;52.008;4.576;2023-08-06T01:32:58;51847.44;;;-143.47;100.00
35121;BME280;21297;52.008;4.576;2023-08-06T01:35:46;51827.75;;;-143.47;100.00
35121;BME280;21297;52.008;4.576;2023-08-06T01:38:33;51825.78;;;-143.47;100.00
35121;BME280;21297;52.008;4.576;2023-08-06T01:41:19;51782.50;;;-143.47;100.00
35121;BME280;21297;52.008;4.576;2023-08-06T01:44:05;51920.25;;;-143.47;100.00
35121;BME280;21297;52.008;4.576;2023-08-06T01:46:51;51804.13;;;-143.47;100.00
35121;BME280;21297;52.008;4.576;2023-08-06T01:49:37;51888.75;;;-143.47;100.00
35121;BME280;21297;52.008;4.576;2023-08-06T01:52:22;51829.72;;;-143.47;100.00
35121;BME280;21297;52.008;4.576;2023-08-06T01:55:08;51815.94;;;-143.47;100.00
35121;BME280;21297;52.008;4.576;2023-08-06T01:57:53;51817.91;;;-143.47;100.00
35121;BME280;21297;52.008;4.576;2023-08-06T02:00:40;51813.97;;;-143.47;100.00
35121;BME280;21297;52.008;4.576;2023-08-06T02:03:26;51855.31;;;-143.47;100.00
35121;BME280;21297;52.008;4.576;2023-08-06T02:06:11;51817.91;;;-143.47;100.00
35121;BME280;21297;52.008;4.576;2023-08-06T02:08:57;51806.09;;;-143.47;100.00
35121;BME280;21297;52.008;4.576;2023-08-06T02:11:43;51815.94;;;-143.47;100.00
35121;BME280;21297;52.008;4.576;2023-08-06T02:14:29;51760.84;;;-143.47;100.00
35121;BME280;21297;52.008;4.576;2023-08-06T02:17:14;51752.97;;;-143.47;100.00
35121;BME280;21297;52.008;4.576;2023-08-06T02:20:00;51839.56;;;-143.47;100.00
35121;BME280;21297;52.008;4.576;2023-08-06T02:22:46;51833.66;;;-143.47;100.00
35121;BME280;21297;52.008;4.576;2023-08-06T02:25:32;51697.88;;;-143.47;100.00
35121;BME280;21297;52.008;4.576;2023-08-06T02:28:17;51843.50;;;-143.47;100.00
35121;BME280;21297;52.008;4.576;2023-08-06T02:31:03;52069.81;;;-143.47;100.00
35121;BME280;21297;52.008;4.576;2023-08-06T02:33:49;51800.19;;;-143.47;100.00
35121;BME280;21297;52.008;4.576;2023-08-06T02:36:35;51882.84;;;-143.47;100.00
35121;BME280;21297;52.008;4.576;2023-08-06T02:39:20;51886.78;;;-143.47;100.00
35121;BME280;21297;52.008;4.576;2023-08-06T02:42:07;51855.31;;;-143.47;100.00
35121;BME280;21297;52.008;4.576;2023-08-06T02:44:53;51853.34;;;-143.47;100.00
35121;BME280;21297;52.008;4.576;2023-08-06T02:47:41;51817.91;;;-143.47;100.00
35121;BME280;21297;52.008;4.576;2023-08-06T02:50:27;52004.88;;;-143.47;100.00
35121;BME280;21297;52.008;4.576;2023-08-06T02:53:12;51943.84;;;-143.47;100.00
35121;BME280;21297;52.008;4.576;2023-08-06T02:55:58;51963.53;;;-143.47;100.00
35121;BME280;21297;52.008;4.576;2023-08-06T02:58:44;51900.56;;;-143.47;100.00
35121;BME280;21297;52.008;4.576;2023-08-06T03:01:30;52065.88;;;-143.47;100.00
35121;BME280;21297;52.008;4.576;2023-08-06T03:04:15;51857.28;;;-143.47;100.00
35121;BME280;21297;52.008;4.576;2023-08-06T03:07:03;51904.50;;;-143.47;100.00
35121;BME280;21297;52.008;4.576;2023-08-06T03:09:49;51817.91;;;-143.47;100.00
35121;BME280;21297;52.008;4.576;2023-08-06T03:12:34;51847.44;;;-143.47;100.00
35121;BME280;21297;52.008;4.576;2023-08-06T03:15:20;51865.16;;;-143.47;100.00
35121;BME280;21297;52.008;4.576;2023-08-06T03:18:06;51843.50;;;-143.47;100.00
35121;BME280;21297;52.008;4.576;2023-08-06T03:20:52;51745.09;;;-143.47;100.00
35121;BME280;21297;52.008;4.576;2023-08-06T03:23:38;51735.25;;;-143.47;100.00
35121;BME280;21297;52.008;4.576;2023-08-06T03:26:24;51711.66;;;-143.47;100.00
35121;BME280;21297;52.008;4.576;2023-08-06T03:29:09;51776.59;;;-143.47;100.00
35121;BME280;21297;52.008;4.576;2023-08-06T03:31:55;51778.56;;;-143.47;100.00
35121;BME280;21297;52.008;4.576;2023-08-06T03:34:41;51837.59;;;-143.47;100.00
35121;BME280;21297;52.008;4.576;2023-08-06T03:37:26;51943.84;;;-143.47;100.00
35121;BME280;21297;52.008;4.576;2023-08-06T03:40:12;51916.31;;;-143.47;100.00
35121;BME280;21297;52.008;4.576;2023-08-06T03:42:57;51884.81;;;-143.47;100.00
35121;BME280;21297;52.008;4.576;2023-08-06T03:45:43;51963.53;;;-143.47;100.00
35121;BME280;21297;52.008;4.576;2023-08-06T03:48:29;51975.34;;;-143.47;100.00
35121;BME280;21297;52.008;4.576;2023-08-06T03:51:15;51955.66;;;-143.47;100.00
35121;BME280;21297;52.008;4.576;2023-08-06T03:54:00;51904.50;;;-143.47;100.00
35121;BME280;21297;52.008;4.576;2023-08-06T03:56:46;51951.72;;;-143.47;100.00
35121;BME280;21297;52.008;4.576;2023-08-06T03:59:32;51861.22;;;-143.47;100.00
35121;BME280;21297;52.008;4.576;2023-08-06T04:02:17;51699.84;;;-143.47;100.00
35121;BME280;21297;52.008;4.576;2023-08-06T04:05:03;51491.25;;;-143.47;100.00
35121;BME280;21297;52.008;4.576;2023-08-06T04:07:49;51381.06;;;-143.47;100.00
35121;BME280;21297;52.008;4.576;2023-08-06T04:10:35;51310.25;;;-143.47;100.00
35121;BME280;21297;52.008;4.576;2023-08-06T04:13:20;51294.50;;;-143.47;100.00
35121;BME280;21297;52.008;4.576;2023-08-06T04:16:06;51229.56;;;-143.47;100.00
35121;BME280;21297;52.008;4.576;2023-08-06T04:18:52;51211.88;;;-143.47;100.00
35121;BME280;21297;52.008;4.576;2023-08-06T04:21:39;51190.22;;;-143.47;100.00
35121;BME280;21297;52.008;4.576;2023-08-06T04:24:24;51235.47;;;-143.47;100.00
35121;BME280;21297;52.008;4.576;2023-08-06T04:27:11;51217.75;;;-143.47;100.00
35121;BME280;21297;52.008;4.576;2023-08-06T04:29:57;51243.34;;;-143.47;100.00
35121;BME280;21297;52.008;4.576;2023-08-06T04:32:43;51233.50;;;-143.47;100.00
35121;BME280;21297;52.008;4.576;2023-08-06T04:35:29;51259.09;;;-143.47;100.00
35121;BME280;21297;52.008;4.576;2023-08-06T04:38:14;51270.88;;;-143.47;100.00
35121;BME280;21297;52.008;4.576;2023-08-06T04:41:02;51292.53;;;-143.47;100.00
35121;BME280;21297;52.008;4.576;2023-08-06T04:43:48;51302.38;;;-143.47;100.00
35121;BME280;21297;52.008;4.576;2023-08-06T04:46:34;51276.78;;;-143.47;100.00
35121;BME280;21297;52.008;4.576;2023-08-06T04:49:20;51294.50;;;-143.47;100.00
35121;BME280;21297;52.008;4.576;2023-08-06T04:52:06;51282.69;;;-143.47;100.00
35121;BME280;21297;52.008;4.576;2023-08-06T04:54:52;51322.03;;;-143.47;100.00
35121;BME280;21297;52.008;4.576;2023-08-06T04:57:37;51503.06;;;-143.47;100.00
35121;BME280;21297;52.008;4.576;2023-08-06T05:00:23;51386.97;;;-143.47;100.00
35121;BME280;21297;52.008;4.576;2023-08-06T05:03:09;51436.16;;;-143.47;100.00
35121;BME280;21297;52.008;4.576;2023-08-06T05:05:54;51473.56;;;-143.47;100.00
35121;BME280;21297;52.008;4.576;2023-08-06T05:08:40;51747.06;;;-143.47;100.00
35121;BME280;21297;52.008;4.576;2023-08-06T05:11:26;51467.66;;;-143.47;100.00
35121;BME280;21297;52.008;4.576;2023-08-06T05:14:12;51505.03;;;-143.47;100.00
35121;BME280;21297;52.008;4.576;2023-08-06T05:16:57;51508.97;;;-143.47;100.00
35121;BME280;21297;52.008;4.576;2023-08-06T05:19:43;51505.03;;;-143.47;100.00
35121;BME280;21297;52.008;4.576;2023-08-06T05:22:29;51530.63;;;-143.47;100.00
35121;BME280;21297;52.008;4.576;2023-08-06T05:25:14;51489.28;;;-143.47;100.00
35121;BME280;21297;52.008;4.576;2023-08-06T05:28:00;51499.13;;;-143.47;100.00
35121;BME280;21297;52.008;4.576;2023-08-06T05:30:47;51522.75;;;-143.47;100.00
35121;BME280;21297;52.008;4.576;2023-08-06T05:33:32;51518.81;;;-143.47;100.00
35121;BME280;21297;52.008;4.576;2023-08-06T05:36:18;51558.16;;;-143.47;100.00
35121;BME280;21297;52.008;4.576;2023-08-06T05:39:03;51566.03;;;-143.47;100.00
35121;BME280;21297;52.008;4.576;2023-08-06T05:41:49;51505.03;;;-143.47;100.00
35121;BME280;21297;52.008;4.576;2023-08-06T05:44:35;51528.66;;;-143.47;100.00
35121;BME280;21297;52.008;4.576;2023-08-06T05:47:21;51510.94;;;-143.47;100.00
35121;BME280;21297;52.008;4.576;2023-08-06T05:50:07;51556.19;;;-143.47;100.00
35121;BME280;21297;52.008;4.576;2023-08-06T05:52:54;51658.53;;;-143.47;100.00
35121;BME280;21297;52.008;4.576;2023-08-06T05:55:40;51591.63;;;-143.47;100.00
35121;BME280;21297;52.008;4.576;2023-08-06T05:58:25;51640.81;;;-143.47;100.00
35121;BME280;21297;52.008;4.576;2023-08-06T06:01:14;51630.97;;;-143.47;100.00
35121;BME280;21297;52.008;4.576;2023-08-06T06:04:00;51589.66;;;-143.47;100.00
35121;BME280;21297;52.008;4.576;2023-08-06T06:06:46;51670.31;;;-143.47;100.00
35121;BME280;21297;52.008;4.576;2023-08-06T06:09:31;51644.75;;;-143.47;100.00
35121;BME280;21297;52.008;4.576;2023-08-06T06:12:17;51591.63;;;-143.47;100.00
35121;BME280;21297;52.008;4.576;2023-08-06T06:15:03;51581.78;;;-143.47;100.00
35121;BME280;21297;52.008;4.576;2023-08-06T06:17:49;51644.75;;;-143.47;100.00
35121;BME280;21297;52.008;4.576;2023-08-06T06:20:35;51640.81;;;-143.47;100.00
35121;BME280;21297;52.008;4.576;2023-08-06T06:23:20;51605.38;;;-143.47;100.00
35121;BME280;21297;52.008;4.576;2023-08-06T06:26:06;51589.66;;;-143.47;100.00
35121;BME280;21297;52.008;4.576;2023-08-06T06:28:52;51605.38;;;-143.47;100.00
35121;BME280;21297;52.008;4.576;2023-08-06T06:31:38;51548.31;;;-143.47;100.00
35121;BME280;21297;52.008;4.576;2023-08-06T06:34:23;51605.38;;;-143.47;100.00
35121;BME280;21297;52.008;4.576;2023-08-06T06:37:09;51611.28;;;-143.47;100.00
35121;BME280;21297;52.008;4.576;2023-08-06T06:39:55;51587.69;;;-143.47;100.00
35121;BME280;21297;52.008;4.576;2023-08-06T06:42:40;51585.72;;;-143.47;100.00
35121;BME280;21297;52.008;4.576;2023-08-06T06:45:26;51530.63;;;-143.47;100.00
35121;BME280;21297;52.008;4.576;2023-08-06T06:48:11;51526.69;;;-143.47;100.00
35121;BME280;21297;52.008;4.576;2023-08-06T06:50:57;51564.06;;;-143.47;100.00
35121;BME280;21297;52.008;4.576;2023-08-06T06:53:43;51575.88;;;-143.47;100.00
35121;BME280;21297;52.008;4.576;2023-08-06T06:56:29;51518.81;;;-143.47;100.00
35121;BME280;21297;52.008;4.576;2023-08-06T06:59:14;51554.22;;;-143.47;100.00
35121;BME280;21297;52.008;4.576;2023-08-06T07:02:00;51501.09;;;-143.47;100.00
35121;BME280;21297;52.008;4.576;2023-08-06T07:04:46;51526.69;;;-143.47;100.00
35121;BME280;21297;52.008;4.576;2023-08-06T07:07:31;51495.19;;;-143.47;100.00
35121;BME280;21297;52.008;4.576;2023-08-06T07:10:17;51455.84;;;-143.47;100.00
35121;BME280;21297;52.008;4.576;2023-08-06T07:13:03;51410.59;;;-143.47;100.00
35121;BME280;21297;52.008;4.576;2023-08-06T07:15:48;51461.75;;;-143.47;100.00
35121;BME280;21297;52.008;4.576;2023-08-06T07:18:34;51412.56;;;-143.47;100.00
35121;BME280;21297;52.008;4.576;2023-08-06T07:21:20;51383.03;;;-143.47;100.00
35121;BME280;21297;52.008;4.576;2023-08-06T07:24:06;51343.69;;;-143.47;100.00
35121;BME280;21297;52.008;4.576;2023-08-06T07:26:51;51416.50;;;-143.47;100.00
35121;BME280;21297;52.008;4.576;2023-08-06T07:29:38;51341.72;;;-143.47;100.00
35121;BME280;21297;52.008;4.576;2023-08-06T07:32:23;51432.22;;;-143.47;100.00
35121;BME280;21297;52.008;4.576;2023-08-06T07:35:09;51388.94;;;-143.47;100.00
35121;BME280;21297;52.008;4.576;2023-08-06T07:37:58;51381.06;;;-143.47;100.00
35121;BME280;21297;52.008;4.576;2023-08-06T07:40:44;51400.75;;;-143.47;100.00
35121;BME280;21297;52.008;4.576;2023-08-06T07:43:30;51416.50;;;-143.47;100.00
35121;BME280;21297;52.008;4.576;2023-08-06T07:46:15;51436.16;;;-143.47;100.00
35121;BME280;21297;52.008;4.576;2023-08-06T07:49:01;51434.19;;;-143.47;100.00
35121;BME280;21297;52.008;4.576;2023-08-06T07:51:48;51381.06;;;-143.47;99.53
35121;BME280;21297;52.008;4.576;2023-08-06T07:54:33;51398.78;;;-143.47;97.85
35121;BME280;21297;52.008;4.576;2023-08-06T07:57:19;51447.97;;;-143.47;97.70
35121;BME280;21297;52.008;4.576;2023-08-06T08:00:05;51447.97;;;-143.47;96.66
35121;BME280;21297;52.008;4.576;2023-08-06T08:02:51;51446.00;;;-143.47;95.92
35121;BME280;21297;52.008;4.576;2023-08-06T08:05:36;51428.31;;;-143.47;94.11
35121;BME280;21297;52.008;4.576;2023-08-06T08:08:22;51475.53;;;-143.47;95.60
35121;BME280;21297;52.008;4.576;2023-08-06T08:11:08;51455.84;;;-143.47;93.35
35121;BME280;21297;52.008;4.576;2023-08-06T08:13:53;51497.16;;;-143.47;94.24
35121;BME280;21297;52.008;4.576;2023-08-06T08:16:39;51499.13;;;-143.47;94.51
35121;BME280;21297;52.008;4.576;2023-08-06T08:19:24;51440.09;;;-143.47;92.36
35121;BME280;21297;52.008;4.576;2023-08-06T08:22:10;51426.34;;;-143.47;92.70
35121;BME280;21297;52.008;4.576;2023-08-06T08:24:56;51459.78;;;-143.47;93.72
35121;BME280;21297;52.008;4.576;2023-08-06T08:27:41;51455.84;;;-143.47;94.94
35121;BME280;21297;52.008;4.576;2023-08-06T08:30:27;51453.88;;;-143.47;93.83
35121;BME280;21297;52.008;4.576;2023-08-06T08:33:13;51410.59;;;-143.47;92.90
35121;BME280;21297;52.008;4.576;2023-08-06T08:35:59;51442.06;;;-143.47;92.51
35121;BME280;21297;52.008;4.576;2023-08-06T08:38:44;51402.72;;;-143.47;92.60
35121;BME280;21297;52.008;4.576;2023-08-06T08:41:30;51420.44;;;-143.47;92.10
35121;BME280;21297;52.008;4.576;2023-08-06T08:44:16;51398.78;;;-143.47;91.16
35121;BME280;21297;52.008;4.576;2023-08-06T08:47:03;51447.97;;;-143.47;91.66
35121;BME280;21297;52.008;4.576;2023-08-06T08:49:54;51408.63;;;-143.47;91.40
35121;BME280;21297;52.008;4.576;2023-08-06T08:52:40;51491.25;;;-143.47;92.83
35121;BME280;21297;52.008;4.576;2023-08-06T08:55:27;51410.59;;;-143.47;89.05
35121;BME280;21297;52.008;4.576;2023-08-06T08:58:14;51434.19;;;-143.47;90.28
35121;BME280;21297;52.008;4.576;2023-08-06T09:01:00;51402.72;;;-143.47;88.19
35121;BME280;21297;52.008;4.576;2023-08-06T09:03:47;51402.72;;;-143.47;87.94
35121;BME280;21297;52.008;4.576;2023-08-06T09:06:37;51438.13;;;-143.47;87.33
35121;BME280;21297;52.008;4.576;2023-08-06T09:09:30;51447.97;;;-143.47;87.49
35121;BME280;21297;52.008;4.576;2023-08-06T09:12:16;51467.66;;;-143.47;88.38
35121;BME280;21297;52.008;4.576;2023-08-06T09:15:03;51459.78;;;-143.47;86.75
35121;BME280;21297;52.008;4.576;2023-08-06T09:17:48;51542.44;;;-143.47;89.25
35121;BME280;21297;52.008;4.576;2023-08-06T09:20:34;51546.34;;;-143.47;86.32
35121;BME280;21297;52.008;4.576;2023-08-06T09:23:20;51507.00;;;-143.47;85.15
35121;BME280;21297;52.008;4.576;2023-08-06T09:26:06;51528.66;;;-143.47;82.32
35121;BME280;21297;52.008;4.576;2023-08-06T09:28:52;51569.97;;;-143.47;83.43
35121;BME280;21297;52.008;4.576;2023-08-06T09:31:45;51646.72;;;-143.47;82.46
35121;BME280;21297;52.008;4.576;2023-08-06T09:34:31;51609.31;;;-143.47;78.25
35121;BME280;21297;52.008;4.576;2023-08-06T09:37:16;51666.41;;;-143.47;78.91
35121;BME280;21297;52.008;4.576;2023-08-06T09:40:02;51546.34;;;-143.47;78.94
35121;BME280;21297;52.008;4.576;2023-08-06T09:42:48;51617.19;;;-143.47;80.32
35121;BME280;21297;52.008;4.576;2023-08-06T09:45:35;51713.63;;;-143.47;81.44
35121;BME280;21297;52.008;4.576;2023-08-06T09:48:24;51810.03;;;-143.47;81.43
35121;BME280;21297;52.008;4.576;2023-08-06T09:51:10;51825.78;;;-143.47;80.62
35121;BME280;21297;52.008;4.576;2023-08-06T09:53:58;51593.59;;;-143.47;75.47
35121;BME280;21297;52.008;4.576;2023-08-06T09:56:45;51652.63;;;-143.47;71.38
35121;BME280;21297;52.008;4.576;2023-08-06T09:59:31;51593.59;;;-143.47;74.58
35121;BME280;21297;52.008;4.576;2023-08-06T10:02:18;51632.94;;;-143.47;75.59
35121;BME280;21297;52.008;4.576;2023-08-06T10:05:09;51711.66;;;-143.47;78.62
35121;BME280;21297;52.008;4.576;2023-08-06T10:07:56;51717.56;;;-143.47;76.85
35121;BME280;21297;52.008;4.576;2023-08-06T10:10:45;51605.38;;;-143.47;74.66
35121;BME280;21297;52.008;4.576;2023-08-06T10:13:33;51644.75;;;-143.47;74.71
35121;BME280;21297;52.008;4.576;2023-08-06T10:16:22;51615.22;;;-143.47;73.74
35121;BME280;21297;52.008;4.576;2023-08-06T10:19:12;51690.00;;;-143.47;74.94
35121;BME280;21297;52.008;4.576;2023-08-06T10:22:09;51640.81;;;-143.47;75.57
35121;BME280;21297;52.008;4.576;2023-08-06T10:24:59;51544.38;;;-143.47;76.36
35121;BME280;21297;52.008;4.576;2023-08-06T10:27:54;51536.53;;;-143.47;75.28
35121;BME280;21297;52.008;4.576;2023-08-06T10:30:49;51522.75;;;-143.47;73.65
35121;BME280;21297;52.008;4.576;2023-08-06T10:33:44;51627.03;;;-143.47;76.72
35121;BME280;21297;52.008;4.576;2023-08-06T10:36:30;51640.81;;;-143.47;76.23
35121;BME280;21297;52.008;4.576;2023-08-06T10:39:18;51613.25;;;-143.47;71.88
35121;BME280;21297;52.008;4.576;2023-08-06T10:42:04;51629.00;;;-143.47;73.10
35121;BME280;21297;52.008;4.576;2023-08-06T10:45:10;51629.00;;;-143.47;73.87
35121;BME280;21297;52.008;4.576;2023-08-06T10:47:59;51652.63;;;-143.47;73.28
35121;BME280;21297;52.008;4.576;2023-08-06T10:50:47;51648.69;;;-143.47;72.31
35121;BME280;21297;52.008;4.576;2023-08-06T10:53:34;51723.47;;;-143.47;73.75
35121;BME280;21297;52.008;4.576;2023-08-06T10:56:21;51776.59;;;-143.47;73.14
35121;BME280;21297;52.008;4.576;2023-08-06T10:59:15;51825.78;;;-143.47;72.90
35121;BME280;21297;52.008;4.576;2023-08-06T11:02:01;51743.13;;;-143.47;72.65
35121;BME280;21297;52.008;4.576;2023-08-06T11:04:47;51995.03;;;-143.47;73.01
35121;BME280;21297;52.008;4.576;2023-08-06T11:07:34;52059.97;;;-143.47;71.60
35121;BME280;21297;52.008;4.576;2023-08-06T11:10:20;51912.38;;;-143.47;68.97
35121;BME280;21297;52.008;4.576;2023-08-06T11:13:05;51815.94;;;-143.47;71.26
35121;BME280;21297;52.008;4.576;2023-08-06T11:15:53;51928.13;;;-143.47;72.72
35121;BME280;21297;52.008;4.576;2023-08-06T11:18:45;51912.38;;;-143.47;70.03
35121;BME280;21297;52.008;4.576;2023-08-06T11:21:33;51965.50;;;-143.47;70.56
35121;BME280;21297;52.008;4.576;2023-08-06T11:24:18;51916.31;;;-143.47;67.32
35121;BME280;21297;52.008;4.576;2023-08-06T11:27:11;51827.75;;;-143.47;69.04
35121;BME280;21297;52.008;4.576;2023-08-06T11:29:58;52038.31;;;-143.47;75.81
35121;BME280;21297;52.008;4.576;2023-08-06T11:32:47;51859.25;;;-143.47;70.23
35121;BME280;21297;52.008;4.576;2023-08-06T11:35:36;51934.03;;;-143.47;71.13
35121;BME280;21297;52.008;4.576;2023-08-06T11:38:25;51892.69;;;-143.47;66.38
35121;BME280;21297;52.008;4.576;2023-08-06T11:41:12;51752.97;;;-143.47;65.94
35121;BME280;21297;52.008;4.576;2023-08-06T11:44:00;51878.91;;;-143.47;66.24
35121;BME280;21297;52.008;4.576;2023-08-06T11:46:50;51894.66;;;-143.47;66.82
35121;BME280;21297;52.008;4.576;2023-08-06T11:52:28;51863.19;;;-143.47;63.36
35121;BME280;21297;52.008;4.576;2023-08-06T11:55:13;52061.94;;;-143.47;64.80
35121;BME280;21297;52.008;4.576;2023-08-06T11:58:05;52052.09;;;-143.47;64.84
35121;BME280;21297;52.008;4.576;2023-08-06T12:00:51;52117.03;;;-143.47;65.41
35121;BME280;21297;52.008;4.576;2023-08-06T12:03:41;52321.72;;;-143.47;68.10
35121;BME280;21297;52.008;4.576;2023-08-06T12:06:41;51961.56;;;-143.47;65.01
35121;BME280;21297;52.008;4.576;2023-08-06T12:09:29;51794.31;;;-143.47;65.42
35121;BME280;21297;52.008;4.576;2023-08-06T12:12:15;51943.84;;;-143.47;69.03
35121;BME280;21297;52.008;4.576;2023-08-06T12:15:01;51914.34;;;-143.47;67.01
35121;BME280;21297;52.008;4.576;2023-08-06T12:17:47;51717.56;;;-143.47;67.32
35121;BME280;21297;52.008;4.576;2023-08-06T12:20:33;51670.31;;;-143.47;69.87
35121;BME280;21297;52.008;4.576;2023-08-06T12:23:18;51843.50;;;-143.47;69.46
35121;BME280;21297;52.008;4.576;2023-08-06T12:26:06;51918.28;;;-143.47;69.20
35121;BME280;21297;52.008;4.576;2023-08-06T12:28:54;52130.81;;;-143.47;71.01
35121;BME280;21297;52.008;4.576;2023-08-06T12:31:42;51959.59;;;-143.47;70.20
35121;BME280;21297;52.008;4.576;2023-08-06T12:34:28;51678.19;;;-143.47;77.90
35121;BME280;21297;52.008;4.576;2023-08-06T12:37:14;51451.91;;;-143.47;79.69
35121;BME280;21297;52.008;4.576;2023-08-06T12:40:00;51312.22;;;-143.47;87.39
35121;BME280;21297;52.008;4.576;2023-08-06T12:42:45;51333.84;;;-143.47;90.71
35121;BME280;21297;52.008;4.576;2023-08-06T12:45:34;51361.41;;;-143.47;90.16
35121;BME280;21297;52.008;4.576;2023-08-06T12:48:20;51503.06;;;-143.47;89.03
35121;BME280;21297;52.008;4.576;2023-08-06T12:51:05;51552.25;;;-143.47;84.19
35121;BME280;21297;52.008;4.576;2023-08-06T12:53:51;51841.53;;;-143.47;83.96
35121;BME280;21297;52.008;4.576;2023-08-06T12:56:37;51737.22;;;-143.47;78.69
35121;BME280;21297;52.008;4.576;2023-08-06T12:59:23;51743.13;;;-143.47;76.18
35121;BME280;21297;52.008;4.576;2023-08-06T13:02:08;51668.34;;;-143.47;77.94
35121;BME280;21297;52.008;4.576;2023-08-06T13:04:54;51668.34;;;-143.47;76.32
35121;BME280;21297;52.008;4.576;2023-08-06T13:07:40;51564.06;;;-143.47;74.90
35121;BME280;21297;52.008;4.576;2023-08-06T13:10:27;51514.88;;;-143.47;80.55
35121;BME280;21297;52.008;4.576;2023-08-06T13:13:14;51526.69;;;-143.47;86.13
35121;BME280;21297;52.008;4.576;2023-08-06T13:16:00;51615.22;;;-143.47;88.79
35121;BME280;21297;52.008;4.576;2023-08-06T13:18:46;51654.59;;;-143.47;89.32
35121;BME280;21297;52.008;4.576;2023-08-06T13:22:03;51623.09;;;-143.47;88.31
35121;BME280;21297;52.008;4.576;2023-08-06T13:24:30;51591.63;;;-143.47;86.24
35121;BME280;21297;52.008;4.576;2023-08-06T13:26:56;51534.56;;;-143.47;82.96
35121;BME280;21297;52.008;4.576;2023-08-06T13:29:22;51560.13;;;-143.47;83.17
35121;BME280;21297;52.008;4.576;2023-08-06T13:31:47;51568.00;;;-143.47;81.75
35121;BME280;21297;52.008;4.576;2023-08-06T13:34:12;51512.91;;;-143.47;79.32
35121;BME280;21297;52.008;4.576;2023-08-06T13:36:38;51613.25;;;-143.47;77.20
35121;BME280;21297;52.008;4.576;2023-08-06T13:39:10;51743.13;;;-143.47;80.52
35121;BME280;21297;52.008;4.576;2023-08-06T13:41:38;51774.63;;;-143.47;83.75
35121;BME280;21297;52.008;4.576;2023-08-06T13:44:04;51794.31;;;-143.47;86.46
35121;BME280;21297;52.008;4.576;2023-08-06T13:46:30;51806.09;;;-143.47;84.57
35121;BME280;21297;52.008;4.576;2023-08-06T13:48:55;51636.88;;;-143.47;84.44
35121;BME280;21297;52.008;4.576;2023-08-06T13:51:21;51503.06;;;-143.47;86.73
35121;BME280;21297;52.008;4.576;2023-08-06T13:53:49;51538.50;;;-143.47;88.26
35121;BME280;21297;52.008;4.576;2023-08-06T13:56:17;51520.78;;;-143.47;87.50
35121;BME280;21297;52.008;4.576;2023-08-06T13:58:43;51538.50;;;-143.47;90.31
35121;BME280;21297;52.008;4.576;2023-08-06T14:01:18;51351.56;;;-143.47;99.64
35121;BME280;21297;52.008;4.576;2023-08-06T14:03:44;51322.03;;;-143.47;100.00
35121;BME280;21297;52.008;4.576;2023-08-06T14:06:10;51371.25;;;-143.47;100.00
35121;BME280;21297;52.008;4.576;2023-08-06T14:08:35;51396.81;;;-143.47;100.00
35121;BME280;21297;52.008;4.576;2023-08-06T14:11:00;51304.34;;;-143.47;100.00
35121;BME280;21297;52.008;4.576;2023-08-06T14:13:26;51192.19;;;-143.47;100.00